Latest Coastal Weather Observations for Portland Harbour

IDS60701

Issued at 9:35 pm CST Saturday 30 August 2014 (issued every 10 minutes, with the page automatically refreshed every 10 minutes)

About coastal observations | Map of coastal stations | Coastal observations for SA | Marine services | Other Formats
Station Details ID: 090192 Name: PORTLAND NTC AWS Lat: -38.34 Lon: 141.61 Height: 0.0 m
Data from the previous 72 hours. | See also: Recent months for locations in South Australia
Date/Time
CST
Temp

°C
Wind Pressure Rain
since 9am
mm
Weather Cloud Vis
km
Sea
Height
m
Swell
Dir
 
Speed
knots
Gust
knots
hPa Trend Height
m
Period
s
Dir
30/09:30pm 11.9 NW 1 2 1019.0 - - - - - - - - -
30/09:00pm 11.7 SW 1 3 1019.2 - - - - - - - - -
30/08:30pm 12.5 WSW 2 2 1019.3 - - - - - - - - -
30/08:00pm 12.2 W 3 5 1019.4 - - - - - - - - -
30/07:30pm 12.9 SW 2 3 1019.6 - - - - - - - - -
30/07:00pm 13.8 CALM 0 0 1019.6 - - - - - - - - -
30/06:30pm 14.0 CALM 0 1 1019.7 - - - - - - - - -
30/06:00pm 14.2 ENE 1 1 1019.7 - - - - - - - - -
30/05:30pm 14.3 ENE 3 3 1019.7 - - - - - - - - -
30/05:00pm 14.3 E 4 4 1019.6 - - - - - - - - -
30/04:30pm 14.4 E 3 4 1019.7 - - - - - - - - -
30/04:00pm 14.5 E 3 4 1019.7 - - - - - - - - -
30/03:30pm 14.7 E 4 5 1019.9 - - - - - - - - -
30/03:00pm 14.6 ESE 4 5 1020.0 - - - - - - - - -
30/02:30pm 14.2 ESE 5 6 1020.2 - - - - - - - - -
30/02:00pm 14.0 ESE 6 7 1020.4 - - - - - - - - -
30/01:30pm 13.8 ESE 4 6 1020.8 - - - - - - - - -
30/01:00pm 12.7 E 4 6 1021.0 - - - - - - - - -
30/12:30pm 12.2 E 3 4 1021.6 - - - - - - - - -
30/12:00pm 11.4 E 3 5 1022.0 - - - - - - - - -
30/11:30am 10.9 E 3 5 1022.6 - - - - - - - - -
30/11:00am 10.2 ENE 3 4 1023.1 - - - - - - - - -
30/10:30am 9.6 ENE 2 4 1023.4 - - - - - - - - -
30/10:00am 9.2 NE 4 5 1023.7 - - - - - - - - -
30/09:30am 8.7 NNE 4 6 1024.1 - - - - - - - - -
30/09:00am 9.0 NE 9 11 1024.5 - - - - - - - - -
30/08:30am 9.0 NE 8 11 1024.6 - - - - - - - - -
30/08:00am 9.2 ENE 9 12 1024.6 - - - - - - - - -
30/07:30am 9.5 ENE 10 13 1024.8 - - - - - - - - -
30/07:00am 10.9 E 9 11 1024.7 - - - - - - - - -
30/06:30am 11.2 ENE 7 9 1024.7 - - - - - - - - -
30/06:00am 10.9 NE 8 9 1024.7 - - - - - - - - -
30/05:30am 10.7 NE 8 9 1024.7 - - - - - - - - -
30/05:00am 10.8 NE 8 9 1024.7 - - - - - - - - -
30/04:30am 10.9 NE 9 11 1024.6 - - - - - - - - -
30/04:00am 10.8 NE 10 11 1024.6 - - - - - - - - -
30/03:30am 11.0 NE 12 14 1024.6 - - - - - - - - -
30/03:00am 11.4 NE 12 14 1024.7 - - - - - - - - -
30/02:30am 11.6 NE 13 15 1024.9 - - - - - - - - -
30/02:00am 11.7 NE 11 13 1025.2 - - - - - - - - -
30/01:30am 11.7 NE 11 13 1025.5 - - - - - - - - -
30/01:00am 11.8 NE 11 12 1025.7 - - - - - - - - -
30/12:30am 12.1 NE 10 12 1026.0 - - - - - - - - -
30/12:00am 12.4 NE 10 12 1026.2 - - - - - - - - -
 
Date/Time
CST
Temp

°C
Wind Pressure Rain
since 9am
mm
Weather Cloud Vis
km
Sea
Height
m
Swell
Dir
 
Speed
knots
Gust
knots
hPa Trend Height
m
Period
s
Dir
29/11:30pm 12.8 NE 9 11 1026.4 - - - - - - - - -
29/11:00pm 13.2 NE 10 11 1026.5 - - - - - - - - -
29/10:30pm 13.5 ENE 7 8 1026.6 - - - - - - - - -
29/10:00pm 12.9 N 4 4 1026.8 - - - - - - - - -
29/09:30pm 13.9 NE 7 9 1027.1 - - - - - - - - -
29/09:00pm 14.0 ENE 8 9 1027.2 - - - - - - - - -
29/08:30pm 13.9 E 9 10 1027.1 - - - - - - - - -
29/08:00pm 13.9 E 9 11 1027.2 - - - - - - - - -
29/07:30pm 14.1 E 7 9 1027.2 - - - - - - - - -
29/07:00pm 14.2 E 7 11 1027.1 - - - - - - - - -
29/06:30pm 14.4 ESE 7 10 1027.0 - - - - - - - - -
29/06:00pm 14.5 ESE 6 8 1026.8 - - - - - - - - -
29/05:30pm 14.6 SE 6 8 1026.7 - - - - - - - - -
29/05:00pm 14.7 ESE 6 8 1026.6 - - - - - - - - -
29/04:30pm 14.9 ESE 5 5 1026.5 - - - - - - - - -
29/04:00pm 15.0 SE 7 8 1026.6 - - - - - - - - -
29/03:30pm 14.8 ESE 8 9 1026.5 - - - - - - - - -
29/03:00pm 14.8 ESE 8 9 1026.6 - - - - - - - - -
29/02:30pm 14.8 ESE 7 9 1026.8 - - - - - - - - -
29/02:00pm 14.6 ESE 6 8 1027.0 - - - - - - - - -
29/01:30pm 14.5 ESE 8 9 1027.2 - - - - - - - - -
29/01:00pm 14.4 ESE 7 8 1027.4 - - - - - - - - -
29/12:30pm 14.2 ESE 6 7 1027.7 - - - - - - - - -
29/12:00pm 13.9 ESE 5 6 1028.1 - - - - - - - - -
29/11:30am 13.1 E 4 5 1028.5 - - - - - - - - -
29/11:00am 12.4 E 4 4 1028.7 - - - - - - - - -
29/10:30am 12.2 E 3 4 1028.9 - - - - - - - - -
29/10:00am 12.0 ENE 3 4 1029.0 - - - - - - - - -
29/09:30am 11.8 NE 3 4 1029.2 - - - - - - - - -
29/09:00am 11.5 N 2 3 1029.5 - - - - - - - - -
29/08:30am 10.5 SSW 1 2 1029.5 - - - - - - - - -
29/08:00am 8.7 WNW 2 3 1029.2 - - - - - - - - -
29/07:30am 7.8 WSW 3 4 1029.0 - - - - - - - - -
29/07:00am 7.1 WSW 3 4 1028.8 - - - - - - - - -
29/06:30am 6.9 SW 3 4 1028.6 - - - - - - - - -
29/06:00am 6.8 WSW 3 4 1028.2 - - - - - - - - -
29/05:30am 7.0 WSW 2 3 1027.9 - - - - - - - - -
29/05:00am 7.3 WSW 3 3 1027.8 - - - - - - - - -
29/04:30am 7.5 WSW 3 4 1027.7 - - - - - - - - -
29/04:00am 7.8 WSW 2 3 1027.7 - - - - - - - - -
29/03:30am 8.0 WSW 2 3 1027.7 - - - - - - - - -
29/03:00am 8.2 W 2 4 1027.7 - - - - - - - - -
29/02:30am 8.3 WSW 2 3 1027.9 - - - - - - - - -
29/02:00am 8.4 SW 2 3 1027.9 - - - - - - - - -
29/01:30am 8.1 W 2 3 1028.3 - - - - - - - - -
29/01:00am 7.7 WSW 3 4 1028.6 - - - - - - - - -
29/12:30am 8.2 WSW 2 3 1028.6 - - - - - - - - -
29/12:00am 8.6 WSW 2 3 1028.6 - - - - - - - - -
 
Date/Time
CST
Temp

°C
Wind Pressure Rain
since 9am
mm
Weather Cloud Vis
km
Sea
Height
m
Swell
Dir
 
Speed
knots
Gust
knots
hPa Trend Height
m
Period
s
Dir
28/11:30pm 9.1 W 2 3 1028.7 - - - - - - - - -
28/11:00pm 9.0 SW 3 4 1028.8 - - - - - - - - -
28/10:30pm 9.1 SW 3 3 1028.6 - - - - - - - - -
28/10:00pm 9.3 WSW 3 4 1028.7 - - - - - - - - -
28/09:30pm 9.9 WSW 2 3 1028.8 - - - - - - - - -
28/09:00pm 10.2 W 2 3 1028.6 - - - - - - - - -
28/08:30pm 11.4 SSW 2 3 1028.6 - - - - - - - - -
28/08:00pm 11.4 SW 3 3 1028.6 - - - - - - - - -
28/07:30pm 12.0 SSW 2 4 1028.3 - - - - - - - - -
28/07:00pm 12.8 W 3 4 1028.1 - - - - - - - - -
28/06:30pm 13.5 W 3 5 1028.1 - - - - - - - - -
28/06:00pm 14.1 W 3 3 1027.9 - - - - - - - - -
28/05:30pm 15.3 WSW 4 5 1027.6 - - - - - - - - -
28/05:00pm 16.0 WSW 6 9 1027.4 - - - - - - - - -
28/04:30pm 16.3 WSW 8 10 1027.1 - - - - - - - - -
28/04:00pm 16.5 WSW 8 11 1027.0 - - - - - - - - -
28/03:30pm 16.8 W 8 12 1026.8 - - - - - - - - -
28/03:00pm 17.1 W 7 9 1026.8 - - - - - - - - -
28/02:30pm 16.8 WSW 9 12 1026.9 - - - - - - - - -
28/02:00pm 16.7 WSW 11 15 1027.1 - - - - - - - - -
28/01:30pm 14.1 E 5 7 1027.3 - - - - - - - - -
28/01:00pm 14.2 ESE 6 7 1027.4 - - - - - - - - -
28/12:30pm 14.0 ESE 5 6 1027.7 - - - - - - - - -
28/12:00pm 13.2 E 4 6 1027.9 - - - - - - - - -
28/11:30am 13.3 E 4 5 1028.3 - - - - - - - - -
28/11:00am 13.0 ENE 4 5 1028.5 - - - - - - - - -
28/10:30am 12.8 ENE 3 4 1028.8 - - - - - - - - -
28/10:00am 12.6 NE 3 3 1028.9 - - - - - - - - -
28/09:30am 11.8 NNE 2 3 1029.0 - - - - - - - - -
28/09:00am 11.1 NNE 1 2 1029.0 - - - - - - - - -
28/08:30am 9.5 WSW 1 2 1029.0 - - - - - - - - -
28/08:00am 8.3 W 2 2 1029.0 - - - - - - - - -
28/07:30am 7.8 W 3 4 1028.8 - - - - - - - - -
28/07:00am 8.5 WNW 2 3 1028.5 - - - - - - - - -
28/06:30am 8.1 WSW 2 2 1028.3 - - - - - - - - -
28/06:00am 7.6 SW 3 4 1028.0 - - - - - - - - -
28/05:30am 7.9 WSW 2 3 1027.7 - - - - - - - - -
28/05:00am 8.2 W 4 6 1027.5 - - - - - - - - -
28/04:30am 8.2 W 5 7 1027.4 - - - - - - - - -
28/04:00am 8.0 W 3 4 1027.5 - - - - - - - - -
28/03:30am 8.2 W 5 7 1027.3 - - - - - - - - -
28/03:00am 7.6 WSW 3 4 1027.4 - - - - - - - - -
28/02:30am 8.1 W 5 6 1027.5 - - - - - - - - -
28/02:00am 8.4 SW 2 3 1027.7 - - - - - - - - -
28/01:30am 8.3 WSW 3 4 1027.9 - - - - - - - - -
28/01:00am 8.5 WSW 2 3 1028.1 - - - - - - - - -
28/12:30am 8.8 WSW 3 4 1028.2 - - - - - - - - -
28/12:00am 9.1 WSW 3 4 1028.4 - - - - - - - - -
 
Date/Time
CST
Temp

°C
Wind Pressure Rain
since 9am
mm
Weather Cloud Vis
km
Sea
Height
m
Swell
Dir
 
Speed
knots
Gust
knots
hPa Trend Height
m
Period
s
Dir
27/11:30pm 9.2 SW 3 5 1028.5 - - - - - - - - -
27/11:00pm 9.4 WSW 3 4 1028.6 - - - - - - - - -
27/10:30pm 9.9 WSW 2 3 1028.6 - - - - - - - - -
27/10:00pm 9.8 WSW 3 4 1028.7 - - - - - - - - -
27/09:30pm 10.1 SW 2 3 1028.5 - - - - - - - - -

Other Formats:

Comma delimited format used in spreadsheet applications
http://www.bom.gov.au/fwo/IDS60701/IDS60701.95826.axf

JavaScript Object Notation format (JSON) in row-major order
http://www.bom.gov.au/fwo/IDS60701/IDS60701.95826.json